Aérodrome :
LOGIN :

S'inscrire | Disclaimer

   EN    FR    IT 

 










Légende :    VFR   VFR Marginal   IFR   IFR Intensif   IFR Très Intensif
Visi : 
Plafond : 
>= 8 km
>= 3000ft
5 à 8 km
1000 à 3000 ft
1500m à 5 km
500 à 1000 ft
800 à 1500m
200 à 500 ft
< 800m
< 200 ft
Symboles :   Orages  Brouillard  Fortes neiges  Fortes précipitations  Vent > 20 kt
SIGMETs :   Divers  Orages  Givrage  Turbulence  Onde Orograph.  Cendres Volcan.







- Altitude de l'aérodrome : 265 ft
- Voir les cartes d'approche


LFMC - Le Luc

DERNIER METAR :
  • 192000Z AUTO 25010KT 9999 ////// 16/03 Q1015

METARs EXPIRÉS :
  • 191930Z AUTO 28012KT 9999 ////// 17/03 Q1015
  • 191900Z AUTO 28014KT 9999 ////// 17/03 Q1015
  • 191830Z AUTO 28013KT 9999 ////// 18/02 Q1014
  • 191800Z 31013KT CAVOK 18/02 Q1014

TAF N/A
Pas de NOTAMs connus pour ce terrain.
2 SIGMETs publiés pour la FIR Marseille (LFMM) :
 
Turbulence forte
LFMM SIGMET 13 VALID 192000/200000 LFPW
LFMM MARSEILLE FIR/UIR SEV TURB FCST WI N4300 E00500 - N4330 E00500 - N4145 E00715 - N4130 E00645 SFC/FL050 STNR WKN=
Turbulence forte
LFMM SIGMET 12 VALID 192000/200000 LFPW
LFMM MARSEILLE FIR/UIR SEV TURB FCST WI N4115 E00915 - N4115 E00800 - N4100 E00800 - N4330 E00545 - N4345 E00700 FL200/320 MOV E 30KT WKN=



MET'MAP, la Météo Aéronautique d'un coup d'oeil ! - Copyright ORBIFLY Décembre 2007 - Disclaimer

ORBIFLY MET'MAP TEAM :

Programmation & Développement : Alexandra Zaïnal
Conception & Développement : Baudouin d'Aumeries
Co-Programmation & Développement : Marc-Olivier Méhu
Soutien technique & logistique : Manuel Goepfert

Contact : metmap@orbifly.com




SOURCES & CREDITS :

   NOAA